Terminal Aerodrome Forecast
Issued by NWS

Home | Current Version | Previous Version | Text Only | Print | Product List | Glossary On
Versions: 1 2 3 4 5 6 7 8 9 10 11 12 13 14 15 16 17 18 19
906
FTUS43 KICT 251731
TAFCNU
TAF
KCNU 251731Z 2518/2618 17012G20KT P6SM SCT050
     FM260300 16012KT P6SM SCT040 BKN250
     FM260800 17012KT P6SM BKN015
     FM261100 17011KT P6SM BKN008
     FM261600 17012KT P6SM BKN015=

USA.gov is the U.S. government's official web portal to all federal, state and local government web resources and services.